Time;durP1;ratioP1;P1;durP2;ratioP2;P2;SDS_P1;SDS_P2;PMS_P1;PMS_P2;Temp;Humidity;BMP_temperature;BMP_pressure;BME280_temperature;BME280_humidity;BME280_pressure;Samples;Min_cycle;Max_cycle;Signal;HPM_P1;HPM_P2
2023/07/15 00:02:19;;;;;;;3.77;3.37;;;20.60;98.50;;;;;;5082335;28;20437;-70
2023/07/15 00:04:44;;;;;;;4.00;3.40;;;20.60;98.60;;;;;;5073666;28;20668;-70
2023/07/15 00:07:10;;;;;;;4.57;3.37;;;20.70;98.80;;;;;;5084414;28;20222;-70
2023/07/15 00:09:36;;;;;;;6.13;3.80;;;20.70;98.80;;;;;;5067995;28;20757;-71
2023/07/15 00:12:02;;;;;;;4.97;3.20;;;20.70;98.90;;;;;;5081032;28;20196;-71
2023/07/15 00:14:30;;;;;;;4.90;3.80;;;20.70;99.00;;;;;;5080571;28;20662;-71
2023/07/15 00:16:56;;;;;;;3.70;3.03;;;20.70;99.10;;;;;;5067101;28;20665;-70
2023/07/15 00:19:22;;;;;;;3.43;3.13;;;20.70;99.30;;;;;;5083443;28;20483;-72
2023/07/15 00:21:48;;;;;;;4.37;3.33;;;20.70;99.30;;;;;;5083888;28;20179;-71
2023/07/15 00:24:14;;;;;;;3.83;3.23;;;20.70;99.40;;;;;;5074922;28;20430;-71
2023/07/15 00:26:40;;;;;;;4.73;3.40;;;20.70;99.60;;;;;;5081139;28;20526;-71
2023/07/15 00:29:06;;;;;;;4.60;4.20;;;20.80;99.70;;;;;;5072086;28;20502;-70
2023/07/15 00:31:33;;;;;;;4.03;3.30;;;20.80;99.90;;;;;;5051775;28;20518;-71
2023/07/15 00:33:59;;;;;;;4.43;4.03;;;20.70;99.90;;;;;;5078730;28;20946;-70
2023/07/15 00:36:26;;;;;;;5.10;3.60;;;20.70;99.90;;;;;;5087473;28;20496;-70
2023/07/15 00:38:53;;;;;;;3.67;3.30;;;20.70;99.90;;;;;;5077656;28;20286;-70
2023/07/15 00:41:34;;;;;;;3.67;3.10;;;20.80;99.90;;;;;;5065097;28;20750;-70
2023/07/15 00:44:00;;;;;;;3.70;3.40;;;20.70;99.90;;;;;;5081443;28;20432;-70
2023/07/15 00:46:44;;;;;;;4.83;3.27;;;20.80;99.90;;;;;;5081871;28;20431;-70
2023/07/15 00:49:13;;;;;;;3.07;2.80;;;20.70;99.90;;;;;;5082539;28;20418;-70
2023/07/15 00:51:43;;;;;;;3.07;2.87;;;20.60;99.90;;;;;;5080055;28;20434;-71
2023/07/15 00:54:10;;;;;;;3.40;2.97;;;20.60;99.90;;;;;;5073711;28;20424;-70
2023/07/15 00:56:37;;;;;;;5.80;3.13;;;20.50;99.90;;;;;;5081113;28;20438;-71
2023/07/15 00:59:04;;;;;;;3.80;3.50;;;20.50;99.90;;;;;;5079395;28;20469;-70
2023/07/15 01:01:31;;;;;;;4.00;3.37;;;20.50;99.90;;;;;;5076658;28;20787;-68
2023/07/15 01:03:57;;;;;;;3.83;3.30;;;20.40;99.90;;;;;;5070692;28;20423;-68
2023/07/15 01:06:23;;;;;;;6.17;3.83;;;20.40;99.90;;;;;;5081384;28;20494;-70
2023/07/15 01:08:49;;;;;;;3.63;3.33;;;20.30;99.90;;;;;;5080962;28;20181;-70
2023/07/15 01:11:15;;;;;;;4.00;3.57;;;20.30;99.90;;;;;;5080379;28;20496;-69
2023/07/15 01:13:41;;;;;;;3.53;3.23;;;20.30;99.90;;;;;;5081937;28;20228;-70
2023/07/15 01:16:06;;;;;;;4.00;3.40;;;20.20;99.90;;;;;;5081964;28;20223;-70
2023/07/15 01:18:32;;;;;;;3.93;3.60;;;20.10;99.90;;;;;;5082189;28;20213;-69
2023/07/15 01:20:59;;;;;;;3.80;3.50;;;20.10;99.90;;;;;;5072337;28;20179;-71
2023/07/15 01:23:26;;;;;;;5.27;3.60;;;20.00;99.90;;;;;;5076189;28;20190;-70
2023/07/15 01:25:51;;;;;;;4.10;3.27;;;20.00;99.90;;;;;;5073796;28;20510;-70
2023/07/15 01:28:17;;;;;;;3.77;3.47;;;20.00;99.90;;;;;;5079481;28;20495;-70
2023/07/15 01:30:42;;;;;;;5.37;4.10;;;19.90;99.90;;;;;;5072171;28;20172;-70
2023/07/15 01:33:08;;;;;;;4.30;3.90;;;19.90;99.90;;;;;;5081090;28;20524;-70
2023/07/15 01:35:34;;;;;;;3.53;3.20;;;19.90;99.90;;;;;;5082136;28;20182;-70
2023/07/15 01:38:00;;;;;;;4.30;3.90;;;19.80;99.90;;;;;;5077695;28;20189;-70
2023/07/15 01:40:26;;;;;;;3.73;3.30;;;19.80;99.90;;;;;;5081449;28;20458;-71
2023/07/15 01:42:51;;;;;;;3.90;3.50;;;19.70;99.90;;;;;;5072126;28;20202;-71
2023/07/15 01:45:17;;;;;;;4.27;3.50;;;19.70;99.90;;;;;;5072877;28;20324;-70
2023/07/15 01:47:42;;;;;;;4.50;4.10;;;19.60;99.90;;;;;;5083377;28;20189;-72
2023/07/15 01:50:08;;;;;;;4.20;3.70;;;19.50;99.90;;;;;;5081167;28;20171;-70
2023/07/15 01:52:34;;;;;;;4.10;3.53;;;19.50;99.90;;;;;;5081990;28;20182;-70
2023/07/15 01:55:00;;;;;;;6.80;3.57;;;19.50;99.90;;;;;;5076375;28;20176;-70
2023/07/15 01:57:26;;;;;;;4.00;3.60;;;19.40;99.90;;;;;;5075670;28;20456;-69
2023/07/15 01:59:57;;;;;;;6.20;3.57;;;19.40;99.90;;;;;;5080579;28;20466;-70
2023/07/15 02:02:26;;;;;;;7.10;3.90;;;19.30;99.90;;;;;;5079613;28;20442;-70
2023/07/15 02:04:52;;;;;;;4.73;3.53;;;19.30;99.90;;;;;;5078894;28;20781;-70
2023/07/15 02:07:18;;;;;;;3.93;3.63;;;19.30;99.90;;;;;;5084449;28;20404;-70
2023/07/15 02:09:43;;;;;;;5.73;4.30;;;19.20;99.90;;;;;;5080760;28;20672;-69
2023/07/15 02:12:09;;;;;;;3.93;3.23;;;19.20;99.90;;;;;;5075582;28;20202;-70
2023/07/15 02:14:38;;;;;;;3.67;3.30;;;19.20;99.90;;;;;;5070525;28;20232;-70
2023/07/15 02:17:05;;;;;;;5.50;4.20;;;19.20;99.90;;;;;;5059633;28;20213;-71
2023/07/15 02:19:31;;;;;;;3.90;3.50;;;19.10;99.90;;;;;;5074299;28;20449;-70
2023/07/15 02:21:57;;;;;;;6.50;3.73;;;19.10;99.90;;;;;;5071370;28;20443;-70
2023/07/15 02:24:22;;;;;;;4.33;3.90;;;19.10;99.90;;;;;;5081544;28;20174;-69
2023/07/15 02:26:48;;;;;;;4.67;3.53;;;19.10;99.90;;;;;;5076757;28;20419;-69
2023/07/15 02:29:14;;;;;;;6.03;3.80;;;19.00;99.90;;;;;;5075485;28;20270;-70
2023/07/15 02:31:40;;;;;;;4.07;3.73;;;19.00;99.90;;;;;;5067435;28;20262;-69
2023/07/15 02:34:05;;;;;;;4.33;3.93;;;19.00;99.90;;;;;;5073016;28;20194;-70
2023/07/15 02:36:31;;;;;;;6.93;4.53;;;18.90;99.90;;;;;;5051832;28;20176;-70
2023/07/15 02:38:57;;;;;;;4.90;4.50;;;18.90;99.90;;;;;;5073514;28;20206;-70
2023/07/15 02:41:22;;;;;;;6.17;5.10;;;18.90;99.90;;;;;;5075594;28;20432;-70
2023/07/15 02:43:48;;;;;;;4.60;4.20;;;18.90;99.90;;;;;;5077221;28;20259;-70
2023/07/15 02:46:13;;;;;;;4.80;4.27;;;18.80;99.90;;;;;;5073799;28;20516;-70
2023/07/15 02:48:39;;;;;;;4.20;3.80;;;18.80;99.90;;;;;;5068501;28;20187;-70
2023/07/15 02:51:05;;;;;;;6.13;4.20;;;18.80;99.90;;;;;;5077446;28;20241;-69
2023/07/15 02:53:31;;;;;;;5.93;4.83;;;18.80;99.90;;;;;;5068760;28;20197;-69
2023/07/15 02:55:56;;;;;;;4.47;3.80;;;18.70;99.90;;;;;;5074034;28;20588;-70
2023/07/15 02:58:22;;;;;;;5.50;4.23;;;18.70;99.90;;;;;;5074943;28;20462;-70
2023/07/15 03:00:51;;;;;;;5.33;4.00;;;18.70;99.90;;;;;;5072177;28;20178;-70
2023/07/15 03:03:17;;;;;;;4.50;3.67;;;18.60;99.90;;;;;;5070664;28;20198;-70
2023/07/15 03:05:47;;;;;;;4.23;3.83;;;18.60;99.90;;;;;;5070702;28;20446;-70
2023/07/15 03:08:12;;;;;;;4.37;3.97;;;18.60;99.90;;;;;;5075331;28;20181;-70
2023/07/15 03:10:38;;;;;;;4.07;3.70;;;18.60;99.90;;;;;;5070786;28;20527;-69
2023/07/15 03:13:04;;;;;;;5.13;3.60;;;18.60;99.90;;;;;;5085124;28;20202;-69
2023/07/15 03:15:30;;;;;;;5.20;4.30;;;18.60;99.90;;;;;;5077781;28;20575;-69
2023/07/15 03:17:56;;;;;;;9.03;4.20;;;18.60;99.90;;;;;;5074198;28;20465;-69
2023/07/15 03:20:23;;;;;;;4.40;4.00;;;18.60;99.90;;;;;;5057000;28;20446;-69
2023/07/15 03:22:50;;;;;;;4.37;3.50;;;18.60;99.90;;;;;;5052705;28;20534;-69
2023/07/15 03:25:16;;;;;;;4.27;3.87;;;18.60;99.90;;;;;;5081010;28;20404;-69
2023/07/15 03:27:43;;;;;;;6.13;4.20;;;18.60;99.90;;;;;;5076357;28;20919;-69
2023/07/15 03:30:09;;;;;;;5.77;5.20;;;18.60;99.90;;;;;;5079093;28;20436;-70
2023/07/15 03:32:36;;;;;;;4.47;4.07;;;18.60;99.90;;;;;;5054455;28;20534;-70
2023/07/15 03:35:03;;;;;;;6.13;4.03;;;18.70;99.90;;;;;;5080101;28;20435;-70
2023/07/15 03:37:32;;;;;;;5.63;4.50;;;18.70;99.90;;;;;;5072040;28;20953;-70
2023/07/15 03:39:58;;;;;;;4.80;4.30;;;18.70;99.90;;;;;;5070283;28;20430;-68
2023/07/15 03:42:25;;;;;;;4.27;3.80;;;18.70;99.90;;;;;;5070736;28;20448;-69
2023/07/15 03:44:50;;;;;;;5.17;4.57;;;18.70;99.90;;;;;;5064495;28;20217;-70
2023/07/15 03:47:16;;;;;;;4.73;4.40;;;18.80;99.90;;;;;;5065093;28;20445;-70
2023/07/15 03:49:43;;;;;;;7.63;4.60;;;18.80;99.90;;;;;;5050922;28;20174;-69
2023/07/15 03:52:09;;;;;;;4.97;4.10;;;18.80;99.90;;;;;;5078040;28;20251;-68
2023/07/15 03:54:35;;;;;;;5.30;4.80;;;18.80;99.90;;;;;;5076081;28;20413;-69
2023/07/15 03:57:01;;;;;;;4.23;3.93;;;18.80;99.90;;;;;;5066918;28;20436;-69
2023/07/15 03:59:27;;;;;;;6.50;4.50;;;18.90;99.90;;;;;;5066710;28;20405;-69
2023/07/15 04:01:52;;;;;;;4.67;4.17;;;18.90;99.90;;;;;;5066340;28;20179;-70
2023/07/15 04:04:18;;;;;;;4.90;4.20;;;18.90;99.90;;;;;;5063871;28;20183;-70
2023/07/15 04:06:44;;;;;;;5.33;4.30;;;19.00;99.90;;;;;;5065558;28;20201;-69
2023/07/15 04:09:12;;;;;;;6.90;4.20;;;19.00;99.90;;;;;;5085652;28;20405;-69
2023/07/15 04:11:39;;;;;;;6.37;4.30;;;19.00;99.90;;;;;;5081451;28;20173;-70
2023/07/15 04:14:05;;;;;;;5.30;4.47;;;19.10;99.90;;;;;;5081924;28;20463;-71
2023/07/15 04:16:31;;;;;;;5.90;4.23;;;19.20;99.90;;;;;;5075135;28;20405;-70
2023/07/15 04:18:56;;;;;;;5.13;4.73;;;19.30;99.90;;;;;;5077366;28;20832;-69
2023/07/15 04:21:22;;;;;;;8.53;4.20;;;19.30;99.90;;;;;;5078906;28;20243;-70
2023/07/15 04:23:48;;;;;;;5.47;4.87;;;19.40;99.90;;;;;;5087145;28;20265;-70
2023/07/15 04:26:19;;;;;;;4.73;4.30;;;19.60;99.90;;;;;;5089525;28;20162;-70
2023/07/15 04:28:44;;;;;;;5.03;4.63;;;19.70;99.90;;;;;;5092451;28;20186;-71
2023/07/15 04:31:10;;;;;;;4.73;4.33;;;20.10;99.90;;;;;;5086573;28;20489;-71
2023/07/15 04:33:36;;;;;;;4.13;3.73;;;20.80;99.90;;;;;;5083223;28;20250;-71
2023/07/15 04:36:02;;;;;;;4.93;3.40;;;21.50;99.90;;;;;;5079194;28;20426;-71
2023/07/15 04:38:28;;;;;;;4.20;3.90;;;21.90;99.90;;;;;;5078234;28;20214;-70
2023/07/15 04:40:54;;;;;;;4.43;4.03;;;22.10;99.90;;;;;;5062669;28;20842;-70
2023/07/15 04:43:22;;;;;;;5.17;4.37;;;22.40;99.90;;;;;;5079230;28;20510;-70
2023/07/15 04:45:49;;;;;;;6.70;3.60;;;22.70;99.90;;;;;;5079485;28;20165;-69
2023/07/15 04:48:14;;;;;;;4.67;3.50;;;22.70;99.90;;;;;;5082956;28;20561;-69
2023/07/15 04:50:40;;;;;;;5.63;4.27;;;22.50;99.90;;;;;;5077303;28;20531;-70
2023/07/15 04:53:06;;;;;;;4.20;3.80;;;22.10;99.90;;;;;;5075090;28;20212;-70
2023/07/15 04:55:32;;;;;;;3.90;3.60;;;22.00;99.90;;;;;;5083163;28;20671;-70
2023/07/15 04:57:57;;;;;;;4.53;4.00;;;21.80;99.90;;;;;;5082809;28;20454;-70
2023/07/15 05:00:23;;;;;;;4.37;3.57;;;21.90;99.90;;;;;;5066299;28;20201;-70
2023/07/15 05:02:49;;;;;;;5.70;4.37;;;22.00;99.90;;;;;;5083331;28;20762;-71
2023/07/15 05:05:15;;;;;;;4.43;3.80;;;22.10;99.90;;;;;;5083319;28;20173;-70
2023/07/15 05:07:41;;;;;;;4.93;3.53;;;22.30;99.90;;;;;;5082273;28;20999;-70
2023/07/15 05:10:07;;;;;;;4.90;4.00;;;22.40;99.90;;;;;;5080772;28;20514;-70
2023/07/15 05:12:33;;;;;;;5.20;3.40;;;22.90;99.90;;;;;;5082559;28;20298;-70
2023/07/15 05:14:58;;;;;;;5.33;4.83;;;23.00;99.90;;;;;;5081639;28;20855;-70
2023/07/15 05:17:25;;;;;;;4.43;3.87;;;23.10;99.90;;;;;;5076812;28;20189;-70
2023/07/15 05:19:50;;;;;;;4.83;3.70;;;23.20;99.90;;;;;;5075509;28;20168;-70
2023/07/15 05:22:18;;;;;;;4.60;4.20;;;23.40;99.90;;;;;;5082411;28;20453;-70
2023/07/15 05:24:44;;;;;;;5.27;3.57;;;23.80;99.90;;;;;;5082347;28;20254;-70
2023/07/15 05:27:10;;;;;;;3.87;3.57;;;24.00;99.90;;;;;;5075984;28;20411;-71
2023/07/15 05:29:36;;;;;;;3.80;3.50;;;24.10;99.90;;;;;;5082395;28;20490;-71
2023/07/15 05:32:02;;;;;;;4.47;3.73;;;24.50;99.90;;;;;;5080475;28;20431;-71
2023/07/15 05:34:28;;;;;;;5.63;3.87;;;24.50;99.90;;;;;;5058948;28;20431;-70
2023/07/15 05:36:53;;;;;;;3.83;2.80;;;24.30;99.90;;;;;;5072208;28;20344;-70
2023/07/15 05:39:19;;;;;;;4.97;4.17;;;24.40;99.90;;;;;;5081850;28;20166;-70
2023/07/15 05:41:45;;;;;;;5.90;3.63;;;24.60;99.90;;;;;;5082141;28;20226;-71
2023/07/15 05:44:10;;;;;;;5.40;3.20;;;24.30;99.90;;;;;;5073098;28;20170;-70
2023/07/15 05:46:37;;;;;;;3.90;3.50;;;25.20;99.90;;;;;;5082227;28;20182;-70
2023/07/15 05:49:04;;;;;;;6.63;3.70;;;25.60;99.90;;;;;;5073554;28;20289;-70
2023/07/15 05:51:30;;;;;;;5.40;3.53;;;26.10;99.90;;;;;;5077408;28;20519;-70
2023/07/15 05:53:56;;;;;;;3.87;3.03;;;25.90;99.90;;;;;;5082686;28;20513;-70
2023/07/15 05:56:22;;;;;;;3.90;3.33;;;25.50;99.90;;;;;;5072281;28;20978;-71
2023/07/15 05:58:47;;;;;;;4.23;3.30;;;25.60;99.90;;;;;;5064239;28;20307;-71
2023/07/15 06:01:13;;;;;;;3.97;3.63;;;25.70;99.90;;;;;;5072858;28;20174;-71
2023/07/15 06:03:38;;;;;;;4.13;3.83;;;25.50;99.90;;;;;;5082902;28;20273;-71
2023/07/15 06:06:04;;;;;;;3.60;3.30;;;26.10;99.90;;;;;;5080003;28;20766;-71
2023/07/15 06:08:31;;;;;;;4.50;3.70;;;26.10;99.90;;;;;;5082784;28;20181;-70
2023/07/15 06:10:57;;;;;;;3.57;3.27;;;26.50;99.90;;;;;;5080815;28;20518;-70
2023/07/15 06:13:23;;;;;;;4.20;3.80;;;26.90;99.90;;;;;;5080669;28;20550;-70
2023/07/15 06:15:52;;;;;;;4.30;3.43;;;27.40;99.60;;;;;;5081745;28;20178;-70
2023/07/15 06:18:18;;;;;;;7.00;3.33;;;27.40;99.30;;;;;;5069298;28;20625;-70
2023/07/15 06:20:47;;;;;;;6.97;4.33;;;27.10;99.90;;;;;;5059171;28;20425;-70
2023/07/15 06:23:13;;;;;;;6.10;3.40;;;27.10;99.90;;;;;;5086016;28;20775;-68
2023/07/15 06:25:38;;;;;;;3.20;2.90;;;27.20;99.50;;;;;;5077914;28;20545;-71
2023/07/15 06:28:05;;;;;;;3.40;3.10;;;27.10;99.10;;;;;;5086728;28;20506;-68
2023/07/15 06:30:30;;;;;;;4.93;2.63;;;27.70;98.50;;;;;;5072545;28;20185;-70
2023/07/15 06:32:56;;;;;;;3.20;2.73;;;28.30;97.80;;;;;;5064552;28;20597;-71
2023/07/15 06:35:21;;;;;;;4.20;3.53;;;27.90;97.80;;;;;;5084631;28;20177;-71
2023/07/15 06:37:51;;;;;;;3.67;3.17;;;27.30;98.80;;;;;;5057351;28;20290;-70
2023/07/15 06:40:18;;;;;;;4.03;3.27;;;27.20;98.40;;;;;;5074879;28;20250;-69
2023/07/15 06:42:44;;;;;;;5.63;2.43;;;28.50;97.80;;;;;;5081915;28;20420;-70
2023/07/15 06:45:11;;;;;;;4.43;2.90;;;28.80;97.20;;;;;;5084580;28;20793;-70
2023/07/15 06:47:37;;;;;;;5.13;3.40;;;29.40;95.10;;;;;;5081723;28;20514;-69
2023/07/15 06:50:03;;;;;;;4.17;3.20;;;29.20;96.00;;;;;;5072758;28;20430;-70
2023/07/15 06:52:29;;;;;;;4.90;2.70;;;29.60;94.80;;;;;;5079562;28;20431;-70
2023/07/15 06:54:55;;;;;;;4.80;3.37;;;29.80;93.60;;;;;;5083441;28;20443;-70
2023/07/15 06:57:21;;;;;;;4.30;2.80;;;29.20;95.30;;;;;;5089392;28;20216;-70
2023/07/15 06:59:47;;;;;;;4.30;2.73;;;28.80;95.90;;;;;;5081847;28;20170;-70
2023/07/15 07:02:13;;;;;;;3.33;3.03;;;29.60;94.70;;;;;;5089376;28;20762;-70
2023/07/15 07:04:38;;;;;;;3.40;3.10;;;29.80;93.50;;;;;;5080441;28;20499;-72
2023/07/15 07:07:04;;;;;;;7.40;3.50;;;29.40;95.40;;;;;;5075471;28;20629;-69
2023/07/15 07:09:30;;;;;;;3.10;2.90;;;29.70;95.00;;;;;;5084418;28;20173;-70
2023/07/15 07:11:55;;;;;;;3.67;2.80;;;29.70;94.70;;;;;;5078907;28;20653;-70
2023/07/15 07:14:21;;;;;;;2.60;2.40;;;30.20;93.60;;;;;;5088399;28;20185;-70
2023/07/15 07:16:46;;;;;;;3.70;3.00;;;30.40;93.60;;;;;;5081423;28;20174;-70
2023/07/15 07:19:12;;;;;;;4.53;2.60;;;31.10;92.40;;;;;;5081724;28;20254;-70
2023/07/15 07:21:38;;;;;;;5.17;3.13;;;30.80;92.80;;;;;;5074355;28;20166;-70
2023/07/15 07:24:04;;;;;;;5.50;3.40;;;31.70;91.00;;;;;;5082147;28;20214;-70
2023/07/15 07:26:30;;;;;;;3.00;2.70;;;31.20;92.50;;;;;;5080022;28;20442;-71
2023/07/15 07:28:56;;;;;;;3.17;2.87;;;31.80;91.00;;;;;;5084575;28;20170;-70
2023/07/15 07:31:21;;;;;;;3.33;2.80;;;31.60;92.20;;;;;;5085194;28;20592;-71
2023/07/15 07:33:47;;;;;;;2.93;2.70;;;30.80;91.80;;;;;;5083605;28;20221;-69
2023/07/15 07:36:12;;;;;;;4.00;2.73;;;31.80;90.80;;;;;;5077895;28;20710;-71
2023/07/15 07:38:38;;;;;;;3.70;2.53;;;31.90;90.00;;;;;;5070427;28;20213;-71
2023/07/15 07:41:06;;;;;;;3.30;2.57;;;32.80;89.10;;;;;;5077892;28;20189;-71
2023/07/15 07:43:32;;;;;;;3.67;2.33;;;33.10;88.90;;;;;;5084663;28;20197;-72
2023/07/15 07:45:59;;;;;;;3.43;3.10;;;32.80;85.60;;;;;;5081433;28;20416;-70
2023/07/15 07:48:25;;;;;;;3.07;2.77;;;31.90;87.00;;;;;;5084401;28;20446;-71
2023/07/15 07:50:50;;;;;;;4.10;2.90;;;31.80;87.60;;;;;;5082812;28;20408;-70
2023/07/15 07:53:16;;;;;;;6.73;3.17;;;31.80;90.60;;;;;;5084104;28;20654;-71
2023/07/15 07:55:42;;;;;;;5.60;2.90;;;32.80;86.50;;;;;;5083997;28;20268;-71
2023/07/15 07:58:07;;;;;;;4.13;2.50;;;32.60;84.10;;;;;;5083394;28;20197;-70
2023/07/15 08:00:33;;;;;;;4.93;2.83;;;32.90;83.50;;;;;;5083992;28;20604;-71
2023/07/15 08:02:58;;;;;;;3.00;2.80;;;32.70;84.70;;;;;;5081396;28;20194;-71
2023/07/15 08:05:24;;;;;;;3.30;3.00;;;31.90;84.00;;;;;;5084047;28;20177;-69
2023/07/15 08:07:50;;;;;;;5.30;2.90;;;32.50;86.80;;;;;;5077500;28;20666;-72
2023/07/15 08:10:16;;;;;;;4.33;2.80;;;33.20;87.20;;;;;;5088051;28;20182;-71
2023/07/15 08:12:42;;;;;;;2.90;2.57;;;33.20;84.60;;;;;;5086642;28;20473;-72
2023/07/15 08:15:08;;;;;;;4.00;3.20;;;32.50;85.60;;;;;;5063409;28;20727;-71
2023/07/15 08:17:33;;;;;;;2.63;2.43;;;33.40;81.50;;;;;;5085806;28;20459;-71
2023/07/15 08:19:59;;;;;;;4.20;3.10;;;34.40;78.70;;;;;;5082709;28;20184;-73
2023/07/15 08:22:24;;;;;;;4.07;2.73;;;34.60;79.90;;;;;;5083970;28;20293;-70
2023/07/15 08:24:50;;;;;;;3.80;2.60;;;33.60;82.60;;;;;;5083802;28;20612;-71
2023/07/15 08:27:16;;;;;;;2.87;2.60;;;33.30;84.80;;;;;;5065180;28;20515;-71
2023/07/15 08:29:41;;;;;;;3.93;2.87;;;33.80;81.40;;;;;;5083486;28;20226;-71
2023/07/15 08:32:07;;;;;;;3.03;2.80;;;34.10;79.30;;;;;;5081149;28;20197;-71
2023/07/15 08:34:33;;;;;;;3.80;3.07;;;33.90;79.00;;;;;;5084101;28;20547;-69
2023/07/15 08:36:59;;;;;;;2.70;2.50;;;33.30;85.80;;;;;;5082186;28;20222;-70
2023/07/15 08:39:24;;;;;;;2.87;2.47;;;34.70;79.20;;;;;;5083949;28;20416;-71
2023/07/15 08:41:54;;;;;;;4.90;2.70;;;34.80;82.90;;;;;;5083670;28;20264;-70
2023/07/15 08:44:20;;;;;;;5.10;2.43;;;34.60;78.00;;;;;;5077579;28;20252;-71
2023/07/15 08:46:47;;;;;;;4.53;3.27;;;34.10;79.90;;;;;;5084964;28;20503;-70
2023/07/15 08:49:13;;;;;;;3.50;2.70;;;33.60;81.40;;;;;;5062080;28;20181;-71
2023/07/15 08:51:39;;;;;;;3.67;2.60;;;33.70;79.60;;;;;;5084152;28;20408;-71
2023/07/15 08:54:06;;;;;;;3.10;2.80;;;34.80;76.30;;;;;;5081150;28;20785;-70
2023/07/15 08:56:34;;;;;;;3.40;3.10;;;35.00;74.30;;;;;;5084746;28;20189;-69
2023/07/15 08:59:01;;;;;;;4.10;2.60;;;35.20;73.90;;;;;;5082065;28;20797;-70
2023/07/15 09:01:27;;;;;;;2.60;2.40;;;34.70;75.40;;;;;;5071814;28;20408;-70
2023/07/15 09:03:52;;;;;;;3.10;2.33;;;34.70;76.50;;;;;;5086551;28;20530;-70
2023/07/15 09:06:18;;;;;;;2.80;2.60;;;35.20;73.40;;;;;;5080324;28;20197;-70
2023/07/15 09:08:49;;;;;;;5.00;2.50;;;36.00;71.40;;;;;;5068314;28;20209;-71
2023/07/15 09:11:15;;;;;;;2.50;2.30;;;34.50;74.00;;;;;;5079275;28;20185;-71
2023/07/15 09:13:41;;;;;;;6.57;2.70;;;35.00;74.10;;;;;;5084897;28;20451;-70
2023/07/15 09:16:07;;;;;;;3.70;2.47;;;35.10;72.50;;;;;;5062599;28;20173;-71
2023/07/15 09:18:38;;;;;;;3.20;2.90;;;34.50;75.50;;;;;;5078925;28;20667;-70
2023/07/15 09:21:15;;;;;;;5.27;2.27;;;35.50;72.40;;;;;;5080362;28;20166;-70
2023/07/15 09:23:43;;;;;;;3.10;2.47;;;35.70;72.70;;;;;;5083479;28;20432;-70
2023/07/15 09:26:09;;;;;;;2.90;2.40;;;35.00;74.70;;;;;;5081326;28;20499;-69
2023/07/15 09:28:36;;;;;;;3.20;2.73;;;35.60;70.30;;;;;;5084659;28;20879;-69
2023/07/15 09:31:05;;;;;;;2.63;2.30;;;35.40;73.30;;;;;;5075780;28;20423;-70
2023/07/15 09:33:38;;;;;;;2.70;2.40;;;34.90;73.30;;;;;;5082250;28;20439;-70
2023/07/15 09:36:04;;;;;;;3.60;2.33;;;34.70;73.60;;;;;;5080380;28;20408;-70
2023/07/15 09:38:37;;;;;;;2.63;2.33;;;34.20;72.80;;;;;;5082156;28;20453;-71
2023/07/15 09:41:05;;;;;;;4.23;2.40;;;34.90;73.20;;;;;;5081965;28;20173;-70
2023/07/15 09:43:46;;;;;;;2.50;2.30;;;35.20;71.50;;;;;;5082421;28;20432;-70
2023/07/15 09:46:13;;;;;;;2.80;2.60;;;35.30;70.60;;;;;;5079627;28;20423;-70
2023/07/15 09:48:41;;;;;;;2.87;2.37;;;34.90;71.30;;;;;;5082042;28;20786;-72
2023/07/15 09:51:09;;;;;;;2.70;2.40;;;34.70;72.00;;;;;;5080276;28;20416;-71
2023/07/15 09:53:35;;;;;;;5.37;3.10;;;34.90;73.80;;;;;;5081969;28;20776;-70
2023/07/15 09:56:04;;;;;;;6.40;2.20;;;35.70;73.50;;;;;;5080996;28;20452;-70
2023/07/15 09:58:30;;;;;;;2.60;2.40;;;35.30;72.80;;;;;;5082124;28;21026;-71
2023/07/15 10:01:03;;;;;;;2.80;1.90;;;35.00;71.80;;;;;;5081526;28;20430;-71
2023/07/15 10:03:37;;;;;;;2.67;2.47;;;35.40;71.10;;;;;;5084258;28;20833;-71
2023/07/15 10:06:04;;;;;;;2.70;2.50;;;34.90;72.90;;;;;;5085039;28;20811;-71
2023/07/15 10:08:30;;;;;;;5.70;2.43;;;35.20;72.00;;;;;;5086270;28;20406;-71
2023/07/15 10:10:56;;;;;;;3.43;2.20;;;35.30;71.30;;;;;;5079206;28;20907;-72
2023/07/15 10:13:22;;;;;;;2.13;2.03;;;34.80;71.90;;;;;;5089445;28;20638;-71
2023/07/15 10:15:48;;;;;;;2.23;2.10;;;34.70;71.80;;;;;;5085059;28;20189;-69
2023/07/15 10:18:17;;;;;;;2.90;2.60;;;34.30;73.40;;;;;;5085447;28;20498;-70
2023/07/15 10:20:46;;;;;;;4.70;2.43;;;33.80;75.60;;;;;;5084757;28;20270;-70
2023/07/15 10:23:23;;;;;;;8.03;3.20;;;33.80;75.40;;;;;;5089551;28;20830;-69
2023/07/15 10:26:07;;;;;;;4.17;2.40;;;33.70;75.60;;;;;;5082087;28;20434;-70
2023/07/15 10:28:42;;;;;;;2.60;2.40;;;33.40;75.00;;;;;;5077419;28;20435;-69
2023/07/15 10:31:15;;;;;;;2.87;2.33;;;33.70;76.10;;;;;;5083097;28;20908;-70
2023/07/15 10:33:53;;;;;;;2.43;2.23;;;33.90;75.00;;;;;;5080116;28;20531;-69
2023/07/15 10:36:35;;;;;;;4.37;2.50;;;33.70;73.40;;;;;;5081872;28;20899;-70
2023/07/15 10:39:16;;;;;;;6.13;3.13;;;33.90;71.20;;;;;;5080640;28;20444;-69
2023/07/15 10:41:45;;;;;;;2.47;2.10;;;33.60;71.30;;;;;;5084551;28;20407;-70
2023/07/15 10:44:40;;;;;;;3.47;2.87;;;33.50;71.80;;;;;;5084462;28;20404;-70
2023/07/15 10:47:07;;;;;;;2.83;2.60;;;33.60;72.20;;;;;;5083749;28;20472;-70
2023/07/15 10:49:33;;;;;;;2.97;2.70;;;33.70;71.90;;;;;;5085200;28;20403;-70
2023/07/15 10:51:59;;;;;;;4.20;2.90;;;33.50;70.70;;;;;;5084553;28;20403;-70
2023/07/15 10:54:27;;;;;;;2.90;2.50;;;33.30;72.30;;;;;;5085051;28;20173;-70
2023/07/15 10:56:53;;;;;;;3.10;2.50;;;33.30;72.10;;;;;;5084968;28;20173;-70
2023/07/15 10:59:20;;;;;;;2.90;2.50;;;33.30;69.20;;;;;;5075261;28;20866;-69
2023/07/15 11:01:46;;;;;;;3.37;2.73;;;33.30;69.10;;;;;;5084842;28;20493;-69
2023/07/15 11:04:11;;;;;;;4.60;2.33;;;33.50;69.10;;;;;;5065361;28;20466;-70
2023/07/15 11:06:37;;;;;;;3.80;2.50;;;33.40;68.20;;;;;;5085115;28;20257;-69
2023/07/15 11:09:16;;;;;;;6.60;2.27;;;33.50;68.10;;;;;;5078314;28;20174;-71
2023/07/15 11:11:42;;;;;;;2.53;2.33;;;33.80;68.70;;;;;;5087776;28;20315;-71
2023/07/15 11:14:27;;;;;;;3.07;2.77;;;33.60;70.00;;;;;;5086250;28;20636;-71
2023/07/15 11:16:59;;;;;;;3.10;2.90;;;33.40;71.40;;;;;;5078934;28;20178;-70
2023/07/15 11:19:27;;;;;;;6.20;3.23;;;33.50;71.90;;;;;;5064690;28;20422;-69
2023/07/15 11:21:55;;;;;;;3.50;3.20;;;33.50;72.40;;;;;;5081961;28;20434;-72
2023/07/15 11:24:25;;;;;;;4.93;2.97;;;33.30;70.00;;;;;;5084665;28;20414;-71
2023/07/15 11:26:51;;;;;;;3.40;2.67;;;33.40;71.30;;;;;;5084569;28;20404;-70
2023/07/15 11:29:19;;;;;;;3.17;2.87;;;33.60;69.80;;;;;;5084599;28;20399;-70
2023/07/15 11:31:47;;;;;;;2.97;2.70;;;33.60;69.50;;;;;;5084258;28;20743;-70
2023/07/15 11:34:15;;;;;;;2.60;2.40;;;33.50;69.20;;;;;;5064492;28;20416;-70
2023/07/15 11:36:41;;;;;;;2.47;2.27;;;33.50;65.90;;;;;;5084449;28;20403;-71
2023/07/15 11:39:07;;;;;;;2.50;2.23;;;33.30;66.70;;;;;;5077778;28;20892;-69
2023/07/15 11:41:36;;;;;;;8.60;2.63;;;33.40;68.50;;;;;;5086429;28;20178;-69
2023/07/15 11:44:22;;;;;;;2.90;2.33;;;33.50;67.40;;;;;;5082386;28;20198;-71
2023/07/15 11:46:48;;;;;;;3.07;2.50;;;33.60;66.60;;;;;;5081851;28;20431;-72
2023/07/15 11:49:21;;;;;;;2.50;2.30;;;33.80;66.50;;;;;;5083901;28;20469;-71
2023/07/15 11:51:47;;;;;;;4.47;2.40;;;33.80;64.40;;;;;;5083262;28;20466;-71
2023/07/15 11:54:16;;;;;;;2.50;2.30;;;33.80;63.60;;;;;;5084398;28;20447;-71
2023/07/15 11:56:46;;;;;;;2.20;2.10;;;33.60;64.00;;;;;;5085364;28;20196;-71
2023/07/15 11:59:26;;;;;;;2.80;2.60;;;33.70;63.00;;;;;;5083568;28;20817;-71
2023/07/15 12:01:52;;;;;;;3.20;2.10;;;33.90;62.00;;;;;;5084088;28;20407;-70
2023/07/15 12:04:19;;;;;;;4.80;1.90;;;34.00;61.10;;;;;;5081879;28;20416;-71
2023/07/15 12:06:49;;;;;;;2.13;2.03;;;33.90;60.80;;;;;;5084081;28;20189;-70
2023/07/15 12:09:15;;;;;;;2.53;2.03;;;33.80;62.10;;;;;;5059259;28;20419;-70
2023/07/15 12:11:41;;;;;;;3.13;2.40;;;33.90;61.10;;;;;;5066594;28;20413;-70
2023/07/15 12:14:07;;;;;;;2.63;1.97;;;34.00;61.70;;;;;;5082305;28;20452;-71
2023/07/15 12:16:36;;;;;;;2.23;2.03;;;33.90;60.50;;;;;;5083630;28;20260;-70
2023/07/15 12:19:02;;;;;;;1.80;1.70;;;33.90;60.80;;;;;;5081051;28;20444;-70
2023/07/15 12:21:28;;;;;;;1.73;1.40;;;33.90;61.70;;;;;;5083594;28;20407;-69
2023/07/15 12:23:58;;;;;;;1.83;1.70;;;34.00;59.30;;;;;;5082454;28;20427;-70
2023/07/15 12:26:24;;;;;;;2.00;1.90;;;34.10;59.70;;;;;;5082264;28;20908;-70
2023/07/15 12:28:50;;;;;;;2.40;1.83;;;34.10;59.70;;;;;;5083562;28;20519;-70
2023/07/15 12:31:16;;;;;;;2.20;2.00;;;34.20;59.50;;;;;;5083152;28;20511;-71
2023/07/15 12:33:43;;;;;;;1.87;1.77;;;34.20;59.20;;;;;;5082837;28;20427;-69
2023/07/15 12:36:10;;;;;;;2.40;1.70;;;34.20;59.60;;;;;;5081988;28;20408;-69
2023/07/15 12:38:36;;;;;;;3.43;2.00;;;34.40;59.90;;;;;;5083176;28;20461;-70
2023/07/15 12:41:03;;;;;;;2.43;2.10;;;34.50;59.40;;;;;;5082003;28;20432;-70
2023/07/15 12:43:29;;;;;;;2.07;1.60;;;34.50;60.00;;;;;;5083049;28;20509;-70
2023/07/15 12:45:55;;;;;;;7.20;2.20;;;34.50;59.20;;;;;;5080201;28;20436;-70
2023/07/15 12:48:20;;;;;;;2.13;1.80;;;34.30;58.70;;;;;;5083125;28;20258;-70